Time;durP1;ratioP1;P1;durP2;ratioP2;P2;SDS_P1;SDS_P2;PMS_P1;PMS_P2;Temp;Humidity;BMP_temperature;BMP_pressure;BME280_temperature;BME280_humidity;BME280_pressure;Samples;Min_cycle;Max_cycle;Signal;HPM_P1;HPM_P2
2023/05/15 00:03:39;;;;;;;10.73;7.88;;;;;;;13.19;80.10;97554.91;10286140;28;20125;-53
2023/05/15 00:08:39;;;;;;;14.80;8.00;;;;;;;13.12;80.60;97555.03;10285992;28;20074;-53
2023/05/15 00:13:38;;;;;;;10.15;8.02;;;;;;;13.12;80.66;97554.19;10286789;28;20076;-53
2023/05/15 00:18:36;;;;;;;;;;;;;;;13.07;80.72;97529.91;10285562;28;20037;-54
2023/05/15 00:23:35;;;;;;;12.20;7.70;;;;;;;13.24;80.49;97516.66;10285510;28;20288;-53
2023/05/15 00:28:34;;;;;;;10.57;7.82;;;;;;;13.29;80.21;97502.66;10285448;28;20124;-53
2023/05/15 00:33:33;;;;;;;;;;;;;;;13.30;79.87;97506.97;10285590;28;20033;-54
2023/05/15 00:38:32;;;;;;;8.45;6.60;;;;;;;13.28;79.83;97511.38;10284544;28;19961;-53
2023/05/15 00:43:32;;;;;;;10.32;6.20;;;;;;;13.40;79.54;97501.59;10284339;28;20116;-54
2023/05/15 00:48:32;;;;;;;9.32;6.18;;;;;;;13.52;78.56;97506.66;10284284;28;20116;-53
2023/05/15 00:53:31;;;;;;;10.88;6.13;;;;;;;13.64;78.30;97503.84;10284311;28;20113;-53
2023/05/15 00:58:30;;;;;;;;;;;;;;;13.83;77.70;97527.88;10283506;28;20034;-53
2023/05/15 01:03:30;;;;;;;12.02;5.80;;;;;;;13.92;76.71;97499.00;10284329;28;20008;-54
2023/05/15 01:08:48;;;;;;;8.35;6.07;;;;;;;14.09;76.09;97508.25;10283178;28;20073;-53
2023/05/15 01:13:47;;;;;;;9.63;5.90;;;;;;;14.10;75.62;97505.63;10283882;28;20054;-53
2023/05/15 01:18:46;;;;;;;;;;;;;;;14.17;75.38;97509.84;10283357;28;20026;-53
2023/05/15 01:24:15;;;;;;;11.38;6.43;;;;;;;14.25;75.23;97524.50;10283650;28;20398;-53
2023/05/15 01:29:20;;;;;;;10.10;7.27;;;;;;;14.37;75.13;97522.50;10283056;28;20069;-54
2023/05/15 01:34:26;;;;;;;10.07;7.45;;;;;;;14.08;77.70;97517.00;10283554;28;20080;-53
2023/05/15 01:39:27;;;;;;;10.07;7.82;;;;;;;13.86;78.78;97519.97;10282169;28;20141;-53
2023/05/15 01:44:33;;;;;;;13.68;9.13;;;;;;;13.24;80.25;97477.56;10282777;28;20077;-53
2023/05/15 01:49:32;;;;;;;10.57;7.22;;;;;;;13.53;80.15;97524.84;10281428;28;20080;-53
2023/05/15 01:54:33;;;;;;;11.98;8.40;;;;;;;13.59;80.12;97523.94;10282240;28;20101;-53
2023/05/15 01:59:33;;;;;;;12.02;8.13;;;;;;;13.52;80.12;97497.06;10280896;28;20240;-53
2023/05/15 02:04:33;;;;;;;11.07;7.97;;;;;;;13.13;80.01;97410.00;10281448;28;20172;-53
2023/05/15 02:09:32;;;;;;;21.02;9.60;;;;;;;13.38;80.84;97472.13;10282307;28;20479;-53
2023/05/15 02:14:32;;;;;;;9.82;7.45;;;;;;;13.16;80.42;97472.47;10281385;28;20064;-52
2023/05/15 02:19:31;;;;;;;13.77;9.13;;;;;;;13.19;80.62;97455.91;10279991;28;20444;-52
2023/05/15 02:24:30;;;;;;;;;;;;;;;13.21;80.30;97469.78;10282422;28;20143;-53
2023/05/15 02:29:58;;;;;;;13.20;7.57;;;;;;;13.14;80.30;97480.31;10280553;28;19921;-53
2023/05/15 02:35:18;;;;;;;12.43;7.85;;;;;;;13.18;80.32;97480.25;10280979;28;20065;-53
2023/05/15 02:40:19;;;;;;;11.02;7.65;;;;;;;13.28;79.66;97495.75;10279913;28;20346;-54
2023/05/15 02:45:19;;;;;;;9.07;7.60;;;;;;;13.26;79.53;97505.31;10280464;28;20085;-53
2023/05/15 02:50:18;;;;;;;11.05;8.38;;;;;;;13.28;79.53;97495.75;10279115;28;20531;-53
2023/05/15 02:55:17;;;;;;;10.48;7.70;;;;;;;13.32;79.46;97488.72;10279827;28;20068;-54
2023/05/15 03:00:16;;;;;;;;;;;;;;;13.35;79.41;97483.44;10279404;28;20018;-54
2023/05/15 03:05:15;;;;;;;11.90;8.23;;;;;;;13.40;78.93;97480.75;10279634;28;20414;-53
2023/05/15 03:10:14;;;;;;;;;;;;;;;13.23;79.50;97483.66;10280563;28;20508;-53
2023/05/15 03:15:13;;;;;;;11.90;8.15;;;;;;;13.21;79.55;97498.44;10279177;28;19921;-53
2023/05/15 03:20:13;;;;;;;11.50;8.50;;;;;;;13.21;79.41;97491.50;10278556;28;20037;-53
2023/05/15 03:25:12;;;;;;;11.73;8.63;;;;;;;13.22;79.38;97497.56;10279630;28;20586;-53
2023/05/15 03:30:11;;;;;;;11.75;7.90;;;;;;;13.23;79.52;97488.84;10279301;28;20057;-53
2023/05/15 03:35:10;;;;;;;;;;;;;;;13.22;79.60;97489.75;10288723;28;20092;-54
2023/05/15 03:40:09;;;;;;;12.40;9.13;;;;;;;13.30;79.34;97490.47;10287004;28;19936;-53
2023/05/15 03:45:09;;;;;;;13.38;8.85;;;;;;;13.30;79.29;97490.47;10286519;28;20065;-52
2023/05/15 03:50:08;;;;;;;11.40;7.90;;;;;;;13.35;78.62;97488.66;10286069;28;20480;-53
2023/05/15 03:55:07;;;;;;;12.88;8.95;;;;;;;13.35;78.64;97489.53;10285991;28;20514;-53
2023/05/15 04:00:09;;;;;;;11.30;8.45;;;;;;;13.48;78.62;97494.53;10285804;28;20117;-53
2023/05/15 04:05:08;;;;;;;11.48;8.55;;;;;;;13.36;78.29;97486.03;10286853;28;20121;-53
2023/05/15 04:10:08;;;;;;;11.05;7.88;;;;;;;13.40;78.30;97481.66;10286347;28;20066;-53
2023/05/15 04:15:17;;;;;;;10.90;8.45;;;;;;;13.54;78.20;97503.16;10286083;28;20069;-53
2023/05/15 04:20:18;;;;;;;11.23;7.82;;;;;;;13.56;77.55;97504.00;10283076;28;20511;-53
2023/05/15 04:25:19;;;;;;;10.70;7.63;;;;;;;13.67;76.92;97513.38;10284658;28;20065;-53
2023/05/15 04:30:17;;;;;;;11.35;8.00;;;;;;;13.74;76.26;97521.06;10284330;28;20128;-53
2023/05/15 04:35:16;;;;;;;;;;;;;;;13.85;75.95;97518.25;10284191;28;20096;-53
2023/05/15 04:40:15;;;;;;;10.73;7.47;;;;;;;13.84;76.07;97493.06;10284299;28;19917;-54
2023/05/15 04:45:14;;;;;;;;;;;;;;;14.05;74.63;97514.41;10283407;28;20036;-53
2023/05/15 04:50:13;;;;;;;10.50;7.85;;;;;;;14.18;74.92;97503.72;10282054;28;20157;-54
2023/05/15 04:55:12;;;;;;;;;;;;;;;14.49;74.68;97494.41;10284543;28;20987;-53
2023/05/15 05:00:11;;;;;;;11.55;8.23;;;;;;;14.55;73.65;97470.81;10283367;28;20410;-53
2023/05/15 05:05:10;;;;;;;12.90;8.30;;;;;;;14.75;74.20;97486.91;10283040;28;20076;-53
2023/05/15 05:10:10;;;;;;;16.02;9.05;;;;;;;14.76;74.34;97482.56;10282657;28;20101;-53
2023/05/15 05:15:09;;;;;;;11.27;8.10;;;;;;;14.86;73.42;97493.66;10281799;28;20488;-53
2023/05/15 05:20:09;;;;;;;11.15;7.93;;;;;;;14.83;72.67;97479.78;10283846;28;20120;-53
2023/05/15 05:25:08;;;;;;;11.15;8.25;;;;;;;14.82;71.95;97467.59;10282434;28;20061;-53
2023/05/15 05:30:07;;;;;;;15.52;7.93;;;;;;;14.91;72.13;97478.75;10283081;28;20100;-53
2023/05/15 05:35:07;;;;;;;11.63;7.68;;;;;;;14.92;71.65;97475.22;10282919;28;20062;-53
2023/05/15 05:40:07;;;;;;;18.05;8.13;;;;;;;15.01;71.73;97467.16;10281944;28;20495;-54
2023/05/15 05:45:06;;;;;;;11.50;8.18;;;;;;;15.06;70.56;97456.63;10283034;28;20057;-53
2023/05/15 05:50:06;;;;;;;11.45;7.88;;;;;;;15.27;69.95;97470.91;10281897;28;20534;-53
2023/05/15 05:55:05;;;;;;;13.43;8.90;;;;;;;15.44;70.12;97476.63;10281070;28;20205;-53
2023/05/15 06:00:09;;;;;;;13.50;9.48;;;;;;;15.58;69.92;97466.66;10282390;28;20503;-53
2023/05/15 06:05:08;;;;;;;16.90;9.30;;;;;;;15.61;70.03;97481.41;10281223;28;20492;-53
2023/05/15 06:10:08;;;;;;;15.52;9.68;;;;;;;15.71;70.56;97476.78;10280783;28;20073;-53
2023/05/15 06:15:07;;;;;;;17.13;8.75;;;;;;;15.95;70.76;97486.66;10281229;28;20053;-53
2023/05/15 06:20:10;;;;;;;14.32;9.88;;;;;;;16.02;69.96;97441.09;10280281;28;20110;-52
2023/05/15 06:25:12;;;;;;;21.10;12.82;;;;;;;16.55;68.34;97499.84;10281010;28;20517;-53
2023/05/15 06:30:11;;;;;;;17.40;11.23;;;;;;;16.54;68.63;97490.28;10281614;28;20176;-53
2023/05/15 06:35:10;;;;;;;19.38;10.38;;;;;;;16.67;68.61;97491.59;10280684;28;20121;-54
2023/05/15 06:40:10;;;;;;;12.93;8.50;;;;;;;16.86;67.01;97458.75;10280015;28;20084;-53
2023/05/15 06:45:09;;;;;;;14.23;9.45;;;;;;;16.76;64.25;97441.53;10280760;28;20077;-53
2023/05/15 06:50:09;;;;;;;15.57;8.70;;;;;;;17.39;63.69;97483.31;10279746;28;20104;-53
2023/05/15 06:55:08;;;;;;;11.68;8.55;;;;;;;17.95;62.04;97491.06;10279708;28;20057;-53
2023/05/15 07:00:07;;;;;;;13.25;8.57;;;;;;;18.22;60.33;97485.72;10279142;28;20522;-52
2023/05/15 07:05:07;;;;;;;12.68;7.78;;;;;;;18.54;59.98;97487.19;10279428;28;20065;-55
2023/05/15 07:10:07;;;;;;;14.85;8.52;;;;;;;18.54;58.79;97485.41;10279862;28;20772;-52
2023/05/15 07:15:06;;;;;;;12.15;8.88;;;;;;;18.63;58.15;97489.47;10279216;28;20109;-53
2023/05/15 07:20:06;;;;;;;13.20;9.55;;;;;;;18.30;58.30;97483.69;10280172;28;20116;-52
2023/05/15 07:25:05;;;;;;;12.50;9.05;;;;;;;18.30;58.22;97475.81;10278909;28;20062;-52
2023/05/15 07:30:05;;;;;;;13.43;8.75;;;;;;;18.51;57.17;97461.03;10278352;28;20061;-52
2023/05/15 07:35:05;;;;;;;15.25;9.05;;;;;;;18.61;57.63;97468.50;10280126;28;20514;-53
2023/05/15 07:40:05;;;;;;;12.80;9.48;;;;;;;18.54;56.51;97466.16;10278845;28;20551;-53
2023/05/15 07:45:05;;;;;;;14.15;10.15;;;;;;;18.48;57.41;97462.00;10279184;28;20076;-52
2023/05/15 07:50:04;;;;;;;14.20;9.63;;;;;;;18.52;57.97;97460.94;10273553;28;20132;-52
2023/05/15 07:55:04;;;;;;;12.75;10.05;;;;;;;18.18;57.52;97477.97;10281616;28;20060;-52
2023/05/15 08:00:08;;;;;;;14.25;11.32;;;;;;;17.92;58.29;97464.94;10279615;28;20541;-52
2023/05/15 08:05:08;;;;;;;13.27;11.10;;;;;;;17.87;59.50;97461.56;10278012;28;20506;-52
2023/05/15 08:10:07;;;;;;;16.52;10.50;;;;;;;17.71;59.03;97451.59;10281635;28;20463;-52
2023/05/15 08:15:07;;;;;;;16.25;10.90;;;;;;;17.46;59.99;97429.72;10282026;28;20495;-52
2023/05/15 08:20:06;;;;;;;15.57;10.88;;;;;;;17.41;59.67;97439.53;10287866;28;20069;-53
2023/05/15 08:25:07;;;;;;;14.50;11.35;;;;;;;17.39;60.02;97465.78;10288543;28;20559;-53
2023/05/15 08:30:07;;;;;;;16.13;11.82;;;;;;;17.27;60.37;97469.69;10286872;28;20057;-54
2023/05/15 08:35:06;;;;;;;17.35;12.43;;;;;;;16.18;62.60;97347.25;10283358;28;20084;-53
2023/05/15 08:40:06;;;;;;;17.40;12.75;;;;;;;16.83;65.24;97481.56;10285767;28;20125;-55
2023/05/15 08:45:06;;;;;;;15.65;12.90;;;;;;;16.63;67.82;97505.69;10286233;28;20061;-53
2023/05/15 08:50:14;;;;;;;19.77;12.90;;;;;;;16.59;68.70;97470.03;10286363;28;20073;-52
2023/05/15 08:55:14;;;;;;;18.23;12.60;;;;;;;16.63;70.22;97492.59;10279593;28;20121;-52
2023/05/15 09:00:13;;;;;;;17.55;13.02;;;;;;;16.59;70.90;97491.00;10286324;28;20073;-53
2023/05/15 09:05:12;;;;;;;19.02;15.07;;;;;;;16.70;71.28;97476.66;10280534;28;20109;-52
2023/05/15 09:10:13;;;;;;;18.73;11.80;;;;;;;16.93;71.49;97470.75;10286566;28;20069;-53
2023/05/15 09:15:16;;;;;;;15.65;12.05;;;;;;;17.41;70.80;97479.72;10286360;28;20535;-52
2023/05/15 09:20:35;;;;;;;15.30;10.38;;;;;;;18.09;68.15;97459.91;10276920;28;20129;-54
2023/05/15 09:25:37;;;;;;;15.82;10.93;;;;;;;18.46;66.43;97450.69;10282010;28;20069;-53
2023/05/15 09:30:42;;;;;;;16.38;12.65;;;;;;;18.54;63.43;97438.09;10277526;28;20152;-52
2023/05/15 09:35:41;;;;;;;16.00;11.25;;;;;;;18.61;63.45;97423.81;10278651;28;20586;-53
2023/05/15 09:40:40;;;;;;;17.35;11.77;;;;;;;18.71;63.45;97416.47;10277331;28;20042;-52
2023/05/15 09:45:39;;;;;;;16.38;11.25;;;;;;;19.12;63.60;97408.69;10278914;28;20468;-52
2023/05/15 09:50:40;;;;;;;13.90;11.10;;;;;;;19.20;63.50;97419.75;10265656;28;20501;-53
2023/05/15 09:55:41;;;;;;;15.60;11.93;;;;;;;19.71;62.50;97433.47;10277584;28;20077;-53
2023/05/15 10:00:42;;;;;;;14.93;11.07;;;;;;;20.26;61.66;97419.66;10282883;28;20594;-53
2023/05/15 10:05:41;;;;;;;16.73;11.98;;;;;;;20.43;59.67;97416.28;10287635;28;20066;-53
2023/05/15 10:10:41;;;;;;;18.23;13.35;;;;;;;19.75;59.08;97277.06;10281443;28;20479;-53
2023/05/15 10:15:41;;;;;;;13.75;10.50;;;;;;;20.75;59.46;97409.50;10284073;28;20113;-54
2023/05/15 10:20:40;;;;;;;15.05;10.45;;;;;;;20.70;58.89;97399.16;10283519;28;20469;-53
2023/05/15 10:26:20;;;;;;;14.13;10.32;;;;;;;20.84;58.02;97379.16;10283898;28;20450;-53
2023/05/15 10:31:20;;;;;;;18.48;12.07;;;;;;;20.77;57.91;97368.06;10280754;28;20065;-53
2023/05/15 10:36:19;;;;;;;19.63;10.95;;;;;;;20.88;58.22;97370.19;10282562;28;20076;-54
2023/05/15 10:41:20;;;;;;;19.23;12.00;;;;;;;20.87;58.44;97384.31;10279472;28;20115;-54
2023/05/15 10:46:20;;;;;;;18.63;11.63;;;;;;;20.99;57.72;97383.72;10277862;28;20145;-53
2023/05/15 10:51:27;;;;;;;19.55;13.50;;;;;;;20.36;57.51;97304.97;10281328;28;20074;-54
2023/05/15 10:56:31;;;;;;;18.02;13.38;;;;;;;20.68;57.49;97398.38;10280733;28;20053;-53
2023/05/15 11:01:32;;;;;;;20.17;13.75;;;;;;;20.50;58.08;97422.97;10281833;28;20100;-54
2023/05/15 11:06:31;;;;;;;19.77;13.07;;;;;;;20.22;58.25;97426.81;10281504;28;20076;-53
2023/05/15 11:11:55;;;;;;;24.77;14.00;;;;;;;19.93;59.25;97443.06;10276140;28;20022;-53
2023/05/15 11:16:56;;;;;;;21.45;13.77;;;;;;;19.75;61.31;97434.19;10282188;28;20137;-53
2023/05/15 11:21:57;;;;;;;19.42;13.18;;;;;;;19.38;63.42;97435.72;10279547;28;20129;-53
2023/05/15 11:27:01;;;;;;;17.15;12.15;;;;;;;19.08;64.84;97453.59;10282141;28;20053;-53
2023/05/15 11:32:00;;;;;;;19.25;13.40;;;;;;;18.77;66.24;97455.66;10281650;28;20073;-53
2023/05/15 11:37:03;;;;;;;20.00;13.35;;;;;;;18.80;67.02;97459.94;10282047;28;20073;-53
2023/05/15 11:42:10;;;;;;;21.10;14.20;;;;;;;18.97;66.77;97454.91;10281746;28;20129;-53
2023/05/15 11:47:10;;;;;;;23.23;13.48;;;;;;;19.09;66.37;97415.84;10282190;28;20084;-53
2023/05/15 11:52:09;;;;;;;19.77;14.40;;;;;;;19.67;65.49;97416.06;10282560;28;20073;-54
2023/05/15 11:57:08;;;;;;;22.70;15.55;;;;;;;19.70;64.86;97391.38;10291090;28;20101;-53
2023/05/15 12:02:07;;;;;;;22.58;14.82;;;;;;;19.84;63.69;97407.47;10289557;28;20057;-53
2023/05/15 12:07:07;;;;;;;24.13;14.18;;;;;;;19.81;64.74;97416.34;10288468;28;20025;-54
2023/05/15 12:12:12;;;;;;;21.65;13.70;;;;;;;20.00;64.52;97412.88;10286074;28;20077;-53
2023/05/15 12:17:11;;;;;;;60.78;46.38;;;;;;;20.34;62.66;97419.28;10288159;28;20788;-54
2023/05/15 12:22:10;;;;;;;14.55;10.55;;;;;;;20.49;61.44;97408.06;10287138;28;20757;-53
2023/05/15 12:27:10;;;;;;;53.13;44.97;;;;;;;20.78;60.42;97397.94;10288500;28;21057;-54
2023/05/15 12:32:09;;;;;;;22.73;18.48;;;;;;;21.21;59.45;97374.75;10288060;28;20068;-53
2023/05/15 12:37:12;;;;;;;17.17;11.65;;;;;;;21.52;58.50;97393.41;10288219;28;20057;-54
2023/05/15 12:42:11;;;;;;;17.20;10.48;;;;;;;21.58;58.06;97386.94;10287276;28;20144;-54
2023/05/15 12:47:14;;;;;;;16.13;10.63;;;;;;;21.54;55.55;97364.28;10287175;28;20045;-54
2023/05/15 12:52:14;;;;;;;15.00;9.88;;;;;;;21.38;55.30;97331.69;10286351;28;20076;-54
2023/05/15 12:57:13;;;;;;;15.32;9.98;;;;;;;21.44;55.35;97342.78;10288277;28;20544;-54
2023/05/15 13:02:12;;;;;;;13.35;9.90;;;;;;;21.43;54.95;97319.97;10287875;28;20066;-54
2023/05/15 13:07:17;;;;;;;15.57;9.80;;;;;;;21.47;55.06;97339.13;10286030;28;20097;-54
2023/05/15 13:12:18;;;;;;;19.83;10.30;;;;;;;21.23;55.16;97322.75;10286594;28;20137;-53
2023/05/15 13:17:17;;;;;;;14.98;10.35;;;;;;;20.83;56.83;97324.72;10286769;28;20061;-54
2023/05/15 13:22:16;;;;;;;15.88;10.50;;;;;;;20.82;57.66;97320.38;10285079;28;20034;-53
2023/05/15 13:27:15;;;;;;;15.38;10.82;;;;;;;20.88;57.43;97293.69;10286196;28;20430;-53
2023/05/15 13:32:14;;;;;;;13.32;9.63;;;;;;;21.25;56.56;97328.81;10285613;28;20040;-53
2023/05/15 13:37:14;;;;;;;18.70;10.70;;;;;;;21.60;57.56;97336.72;10286135;28;20036;-54
2023/05/15 13:42:13;;;;;;;19.55;10.65;;;;;;;22.09;54.30;97331.50;10285052;28;20477;-54
2023/05/15 13:47:12;;;;;;;16.50;9.93;;;;;;;22.36;53.44;97337.03;10283760;28;20599;-54
2023/05/15 13:52:11;;;;;;;15.65;9.82;;;;;;;22.62;55.35;97340.03;10284834;28;20879;-54
2023/05/15 13:57:10;;;;;;;15.05;9.65;;;;;;;22.69;53.84;97328.16;10284602;28;20024;-54
2023/05/15 14:02:09;;;;;;;18.10;9.48;;;;;;;22.49;53.59;97338.06;10282573;28;20030;-54
2023/05/15 14:07:08;;;;;;;18.05;9.90;;;;;;;22.43;54.63;97289.97;10283796;28;20049;-55
2023/05/15 14:12:08;;;;;;;17.02;9.57;;;;;;;22.87;52.79;97340.38;10282361;28;20140;-54
2023/05/15 14:17:07;;;;;;;16.52;9.35;;;;;;;23.06;51.95;97345.44;10283358;28;20109;-54
2023/05/15 14:22:06;;;;;;;20.00;9.68;;;;;;;23.07;51.24;97339.25;10283920;28;20036;-54
2023/05/15 14:27:05;;;;;;;16.70;9.82;;;;;;;22.99;51.93;97344.94;10283835;28;20033;-54
2023/05/15 14:32:04;;;;;;;16.58;8.68;;;;;;;22.93;52.21;97333.91;10283864;28;20022;-54
2023/05/15 14:37:03;;;;;;;15.05;9.25;;;;;;;23.09;51.96;97350.59;10281829;28;20101;-54
2023/05/15 14:42:03;;;;;;;13.00;8.02;;;;;;;22.93;51.39;97316.22;10280638;28;20104;-54
2023/05/15 14:47:09;;;;;;;17.10;9.63;;;;;;;22.87;51.89;97310.44;10282415;28;20116;-54
2023/05/15 14:52:09;;;;;;;17.35;9.10;;;;;;;22.79;52.25;97322.31;10282647;28;20478;-54
2023/05/15 14:57:08;;;;;;;15.65;9.63;;;;;;;22.81;52.84;97327.47;10282817;28;20551;-54
2023/05/15 15:02:08;;;;;;;15.50;8.40;;;;;;;22.88;52.61;97325.34;10281673;28;20512;-54
2023/05/15 15:07:10;;;;;;;17.67;9.85;;;;;;;22.58;53.36;97302.34;10282879;28;20630;-54
2023/05/15 15:12:09;;;;;;;19.30;13.02;;;;;;;22.65;54.30;97303.69;10282103;28;20058;-54
2023/05/15 15:17:08;;;;;;;21.67;13.20;;;;;;;22.57;55.57;97316.47;10282279;28;20476;-54
2023/05/15 15:22:07;;;;;;;14.43;10.23;;;;;;;22.63;54.91;97302.94;10282438;28;20047;-54
2023/05/15 15:27:06;;;;;;;15.50;9.45;;;;;;;22.53;55.39;97302.59;10281226;28;20029;-53
2023/05/15 15:32:05;;;;;;;14.60;10.18;;;;;;;22.63;56.37;97289.69;10282407;28;20042;-53
2023/05/15 15:37:04;;;;;;;18.85;10.65;;;;;;;22.60;55.70;97284.59;10281476;28;20554;-54
2023/05/15 15:42:03;;;;;;;22.38;11.52;;;;;;;22.56;55.84;97285.69;10282187;28;20046;-53
2023/05/15 15:47:02;;;;;;;17.35;10.02;;;;;;;22.29;56.23;97283.66;10281741;28;20084;-54
2023/05/15 15:52:01;;;;;;;18.42;11.63;;;;;;;22.14;56.56;97269.50;10281467;28;20501;-54
2023/05/15 15:57:00;;;;;;;16.35;10.65;;;;;;;22.44;56.55;97275.84;10282565;28;20496;-53
2023/05/15 16:01:59;;;;;;;17.38;10.07;;;;;;;22.37;56.06;97257.66;10281421;28;20038;-54
2023/05/15 16:06:58;;;;;;;17.70;11.45;;;;;;;22.71;56.71;97265.44;10280338;28;20037;-54
2023/05/15 16:11:57;;;;;;;15.50;9.40;;;;;;;22.64;55.58;97283.47;10280890;28;20699;-53
2023/05/15 16:16:56;;;;;;;21.77;14.45;;;;;;;22.66;56.00;97291.31;10281413;28;20257;-53
2023/05/15 16:21:55;;;;;;;16.85;11.73;;;;;;;22.65;56.42;97287.81;10281829;28;20061;-53
2023/05/15 16:26:55;;;;;;;15.10;9.95;;;;;;;22.55;56.29;97274.28;10281817;28;20036;-53
2023/05/15 16:31:55;;;;;;;14.18;9.38;;;;;;;22.17;56.29;97227.06;10278750;28;20120;-54
2023/05/15 16:36:54;;;;;;;16.08;9.90;;;;;;;22.33;56.77;97290.47;10276632;28;20077;-53
2023/05/15 16:41:53;;;;;;;17.77;10.57;;;;;;;22.33;57.90;97282.56;10282015;28;20057;-54
2023/05/15 16:46:52;;;;;;;22.70;11.18;;;;;;;22.14;57.95;97268.66;10283046;28;20156;-54
2023/05/15 16:51:51;;;;;;;19.50;11.38;;;;;;;21.77;59.58;97278.56;10281076;28;20045;-53
2023/05/15 16:56:50;;;;;;;17.33;11.85;;;;;;;21.40;59.72;97293.72;10282750;28;20188;-53
2023/05/15 17:01:49;;;;;;;21.17;13.63;;;;;;;21.13;61.24;97275.69;10283618;28;20088;-54
2023/05/15 17:06:48;;;;;;;27.23;14.30;;;;;;;20.89;62.00;97277.81;10283100;28;20160;-54
2023/05/15 17:11:47;;;;;;;23.90;14.85;;;;;;;20.75;62.52;97290.84;10282985;28;20040;-54
2023/05/15 17:16:46;;;;;;;24.25;16.83;;;;;;;20.56;62.44;97292.63;10283146;28;20045;-53
2023/05/15 17:21:45;;;;;;;25.02;16.25;;;;;;;20.39;63.38;97289.00;10282081;28;20033;-54
2023/05/15 17:26:44;;;;;;;23.02;17.17;;;;;;;20.16;65.38;97282.19;10283218;28;20921;-54
2023/05/15 17:31:43;;;;;;;25.63;18.02;;;;;;;19.86;66.00;97279.19;10282213;28;20022;-55
2023/05/15 17:36:42;;;;;;;25.30;17.27;;;;;;;19.68;67.52;97290.59;10280241;28;20132;-53
2023/05/15 17:41:41;;;;;;;30.63;19.88;;;;;;;19.40;69.55;97287.38;10282219;28;20495;-54
2023/05/15 17:46:40;;;;;;;26.23;16.10;;;;;;;19.05;68.17;97294.16;10281884;28;20025;-54
2023/05/15 17:51:39;;;;;;;25.95;15.55;;;;;;;18.60;67.16;97269.69;10280409;28;20081;-54
2023/05/15 17:56:38;;;;;;;22.55;15.70;;;;;;;18.47;67.73;97305.25;10281906;28;20030;-55
2023/05/15 18:01:37;;;;;;;27.50;16.63;;;;;;;18.31;67.74;97306.78;10281590;28;20075;-53
2023/05/15 18:06:36;;;;;;;22.67;17.88;;;;;;;18.15;68.11;97309.13;10280721;28;20533;-53
2023/05/15 18:11:35;;;;;;;23.90;17.52;;;;;;;17.99;68.46;97322.03;10281033;28;20057;-53
2023/05/15 18:16:34;;;;;;;21.65;15.20;;;;;;;17.62;68.47;97288.38;10280706;28;20032;-53
2023/05/15 18:21:34;;;;;;;25.00;17.60;;;;;;;17.70;68.65;97318.66;10279500;28;20123;-53
2023/05/15 18:26:33;;;;;;;25.55;16.60;;;;;;;17.70;68.92;97329.16;10282045;28;20539;-53
2023/05/15 18:31:32;;;;;;;27.92;18.23;;;;;;;17.40;69.17;97276.03;10279578;28;20274;-53
2023/05/15 18:36:31;;;;;;;26.70;18.10;;;;;;;17.62;70.16;97328.59;10280768;28;20029;-53
2023/05/15 18:41:30;;;;;;;25.25;18.40;;;;;;;17.58;70.00;97324.34;10280500;28;20034;-54
2023/05/15 18:46:30;;;;;;;27.95;17.88;;;;;;;17.51;70.30;97312.38;10280615;28;20564;-54
2023/05/15 18:51:30;;;;;;;27.60;17.20;;;;;;;17.07;70.25;97217.78;10280001;28;20482;-53
2023/05/15 18:56:28;;;;;;;28.27;18.92;;;;;;;17.35;70.87;97276.22;10280754;28;20105;-53
2023/05/15 19:01:27;;;;;;;29.23;19.40;;;;;;;17.35;71.11;97325.16;10279596;28;20481;-53
2023/05/15 19:06:26;;;;;;;26.92;18.00;;;;;;;17.29;71.81;97297.41;10280563;28;20026;-53
2023/05/15 19:11:26;;;;;;;27.88;17.27;;;;;;;17.23;71.66;97289.75;10278962;28;20120;-53
2023/05/15 19:16:27;;;;;;;26.05;18.20;;;;;;;17.20;71.98;97308.22;10279700;28;20129;-53
2023/05/15 19:21:26;;;;;;;24.60;17.10;;;;;;;17.20;72.26;97334.44;10276805;28;20129;-55
2023/05/15 19:26:27;;;;;;;23.83;16.73;;;;;;;17.07;73.42;97327.88;10278000;28;20037;-53
2023/05/15 19:31:26;;;;;;;31.00;20.45;;;;;;;17.01;73.70;97328.97;10277117;28;20116;-53
2023/05/15 19:36:25;;;;;;;35.13;20.15;;;;;;;16.67;78.59;97340.50;10276657;28;20092;-54
2023/05/15 19:41:25;;;;;;;29.80;20.30;;;;;;;16.57;78.68;97340.84;10278238;28;20141;-53
2023/05/15 19:46:24;;;;;;;33.75;22.42;;;;;;;16.62;78.87;97328.47;10276751;28;20145;-54
2023/05/15 19:51:22;;;;;;;32.95;21.98;;;;;;;16.59;79.05;97323.34;10278145;28;20073;-53
2023/05/15 19:56:23;;;;;;;32.63;20.95;;;;;;;16.45;79.92;97324.63;10278392;28;20018;-53
2023/05/15 20:01:22;;;;;;;36.15;22.73;;;;;;;16.36;80.87;97335.38;10277821;28;20129;-53
2023/05/15 20:06:21;;;;;;;44.03;30.02;;;;;;;15.97;82.74;97303.41;10277974;28;20489;-53
2023/05/15 20:11:20;;;;;;;47.17;32.60;;;;;;;16.18;83.19;97331.56;10278570;28;20025;-53
2023/05/15 20:16:20;;;;;;;45.83;30.48;;;;;;;16.23;82.66;97318.31;10283948;28;20028;-53
2023/05/15 20:21:19;;;;;;;35.58;23.33;;;;;;;16.24;82.62;97318.28;10285754;28;20547;-53
2023/05/15 20:26:20;;;;;;;28.00;20.33;;;;;;;16.27;82.62;97310.31;10286207;28;20570;-53
2023/05/15 20:31:19;;;;;;;25.63;19.35;;;;;;;16.12;82.06;97289.88;10284996;28;20077;-54
2023/05/15 20:36:19;;;;;;;26.10;17.10;;;;;;;16.16;81.10;97290.63;10284595;28;20472;-53
2023/05/15 20:41:17;;;;;;;24.15;17.05;;;;;;;16.18;80.31;97292.28;10284124;28;20121;-53
2023/05/15 20:46:16;;;;;;;23.13;16.38;;;;;;;16.11;79.49;97282.06;10284462;28;20033;-53
2023/05/15 20:51:15;;;;;;;;;;;;;;;16.12;79.19;97286.41;10285255;28;20124;-53
2023/05/15 20:56:14;;;;;;;26.70;17.20;;;;;;;16.20;78.98;97287.00;10284744;28;19920;-53
2023/05/15 21:01:14;;;;;;;29.48;21.60;;;;;;;15.78;79.13;97206.28;10284915;28;20809;-53
2023/05/15 21:06:13;;;;;;;29.35;19.67;;;;;;;15.93;82.46;97279.09;10284201;28;20114;-53
2023/05/15 21:11:12;;;;;;;31.88;21.55;;;;;;;15.93;83.47;97263.41;10284517;28;20129;-53
2023/05/15 21:16:11;;;;;;;28.50;20.15;;;;;;;15.65;85.71;97253.72;10282001;28;20026;-52
2023/05/15 21:21:10;;;;;;;27.25;21.73;;;;;;;15.49;87.06;97267.28;10283083;28;20551;-52
2023/05/15 21:26:09;;;;;;;33.65;22.08;;;;;;;15.36;88.43;97254.56;10282220;28;20498;-53
2023/05/15 21:31:10;;;;;;;34.55;21.55;;;;;;;15.45;88.21;97256.06;10281672;28;20136;-53
2023/05/15 21:36:09;;;;;;;29.10;20.50;;;;;;;15.48;87.90;97261.19;10280663;28;20121;-53
2023/05/15 21:41:07;;;;;;;30.30;20.27;;;;;;;15.32;89.00;97252.06;10281736;28;20064;-53
2023/05/15 21:46:06;;;;;;;26.52;18.58;;;;;;;15.13;88.99;97249.09;10281343;28;20140;-53
2023/05/15 21:51:05;;;;;;;31.33;19.48;;;;;;;15.19;90.15;97268.09;10282161;28;20125;-53
2023/05/15 21:56:05;;;;;;;28.95;19.58;;;;;;;15.19;89.85;97252.41;10282954;28;20045;-53
2023/05/15 22:01:04;;;;;;;31.70;19.50;;;;;;;15.36;89.20;97261.53;10282041;28;20531;-53
2023/05/15 22:06:03;;;;;;;28.40;20.40;;;;;;;15.46;88.51;97249.94;10281599;28;20145;-53
2023/05/15 22:11:02;;;;;;;28.05;20.65;;;;;;;15.50;88.54;97242.84;10279820;28;20470;-53
2023/05/15 22:16:01;;;;;;;28.50;18.92;;;;;;;15.13;88.57;97200.34;10279646;28;20101;-53
2023/05/15 22:21:01;;;;;;;27.02;19.63;;;;;;;15.47;87.55;97238.56;10277496;28;20630;-53
2023/05/15 22:26:01;;;;;;;26.83;19.48;;;;;;;15.64;86.64;97227.59;10278343;28;20472;-53
2023/05/15 22:31:00;;;;;;;26.70;18.83;;;;;;;15.67;86.14;97225.78;10279255;28;20128;-53
2023/05/15 22:35:59;;;;;;;25.08;17.77;;;;;;;15.56;86.66;97198.22;10280899;28;20065;-52
2023/05/15 22:40:58;;;;;;;26.95;17.98;;;;;;;15.65;89.16;97222.34;10281341;28;20049;-53
2023/05/15 22:45:57;;;;;;;;;;;;;;;15.35;91.52;97224.09;10280919;28;20238;-53
2023/05/15 22:50:56;;;;;;;28.77;20.50;;;;;;;14.94;93.33;97220.84;10279323;28;19921;-53
2023/05/15 22:55:55;;;;;;;31.08;20.75;;;;;;;14.85;92.76;97195.00;10280663;28;20065;-53
2023/05/15 23:00:54;;;;;;;25.95;18.05;;;;;;;14.99;93.06;97221.63;10279896;28;20117;-53